Hlavní strana
METAR-TAF:

METAR-TAF

Letiště :

Greenville, Alabama, Spojené státy americké

zeměpisná šířka: 31-50-44N, zeměpisná délka: 086-36-38W, výška: 138 m

Aktuální stav počasí

Zpráva byla vytvořena před 31 minutami, v 18:22 UTC
Severní vítr 14 kt s nárazy do 22 kt
Teplota 9°C
Vlhkost vzduchu 76%
Tlak 1020 hPa
Viditelnost: 16.1 km
Zataženo ve výšce 900 ft

METAR: KPRN 151822Z AUTO 35014G22KT 10SM OVC009 09/05 A3012 RMK AO2 T00890050 $

Čas: 12:53 (18:53 UTC)


TAF: chybějící

Stav a předpovědi počasí z více než 4 000 letišť (zprávy METAR a TAF).

Červené a žluté tečky na mapě představují dostupné meteorologické stanice.

Když kurzor umístíte na tečku, zobrazí se název stanice.

Pak kliknutím zobrazíte stav a předpověď počasí.

Chcete-li změnit mapu, kliknutím na zelené tlačítko se znaménkem +mapu přiblížíte, kliknutím na zelené tlačítko se znaménkem – mapu oddálíte a kliknutím na zelené šipky přejdete na sousední mapy.


METAR-TAF: